Terminal Aerodrome Forecast
Issued by NWS

Home | Current Version | Previous Version | Text Only | Print | Product List | Glossary On
Versions: 1 2 3 4 5 6 7 8 9 10 11 12 13 14 15 16 17 18
000
FTUS41 KBTV 021700
TAFRUT
TAF
KRUT 021725Z 0218/0318 VRB03KT P6SM SCT025 BKN040
      TEMPO 0218/0220 BKN025
     FM030000 13004KT P6SM SCT020
     FM030800 13006KT P6SM BKN020
     FM031500 14008KT P6SM SCT030
      AMD LTD TO CLD VIS AND WIND=

USA.gov is the U.S. government's official web portal to all federal, state and local government web resources and services.